Impacts TAF Board INFO
FOR SITUATIONAL AWARENESS. NOT TO BE USED FOR FLIGHT PLANNING PURPOSES.
IDs:

KEWR - Newark Intl, NJ, US

Issued at 0822 UTC 21 Feb 2017
Updated at 0942 UTC 21 Feb 2017
Potential Impact None Slight Moderate High
Time0851Z 21/10Z 21/11Z 21/12Z 21/13Z 21/14Z 21/15Z 21/16Z 21/17Z 21/18Z 21/19Z 21/20Z 21/21Z 21/22Z
Type OBS PRVL PRVL PRVL PRVL PRVL PRVL PRVL PRVL PRVL PRVL PRVL PRVL PRVL
VIS 10 >6 >6 >6 >6 >6 >6 >6 >6 >6 >6 >6 >6 >6
CIG -- -- -- -- 250 250 250 250 180 180 180 180 180 180
Cover FEW FEW FEW FEW BKN BKN BKN BKN OVC OVC OVC OVC OVC OVC
FltCat VFR VFR VFR VFR VFR VFR VFR VFR VFR VFR VFR VFR VFR VFR
WX -- -- -- -- -- -- -- -- -- -- -- -- -- --
WDir 10 40 40 40 110 110 110 110 150 150 150 150 150 150
WSpd 4 6 6 6 5 5 5 5 8 8 8 8 8 8
WGst -- -- -- -- -- -- -- -- -- -- -- -- -- --

Raw TAF
KEWR 210822Z 2108/2212 04006KT P6SM FEW250
  FM211300 11005KT P6SM BKN250
  FM211700 15008KT P6SM OVC180
  FM220100 18005KT P6SM BKN120
  FM220800 17004KT P6SM FEW025 SCT040 OVC090


Raw METAR
KEWR 210851Z 01004KT 10SM FEW250 01/M09 A3037 RMK AO2 SLP282 T00061094 55001 $
KEWR 210751Z 03007KT 10SM FEW250 01/M09 A3036 RMK AO2 SLP280 T00061094 $
KEWR 210651Z 03008KT 10SM FEW250 01/M09 A3037 RMK AO2 SLP283 T00111089 $

METAR Board
Radar Display
Forecast Discussion

FOR SITUATIONAL AWARENESS. NOT TO BE USED FOR FLIGHT PLANNING PURPOSES.

Page loaded:  09:42 UTC  |   01:42 AM Pacific  |   02:42 AM Mountain  |   03:42 AM Central  |   04:42 AM Eastern

 

ADVISORIES

FORECASTS

FORECASTS

OBSERVATIONS

USER TOOLS

ABOUT US